Time;durP1;ratioP1;P1;durP2;ratioP2;P2;SDS_P1;SDS_P2;PMS_P1;PMS_P2;Temp;Humidity;BMP_temperature;BMP_pressure;BME280_temperature;BME280_humidity;BME280_pressure;Samples;Min_cycle;Max_cycle;Signal;HPM_P1;HPM_P2
2023/06/08 00:00:10;;;;;;;15.15;7.85;;;15.20;92.00;;;;;;5034360;28;20476;-81
2023/06/08 00:02:36;;;;;;;11.50;7.60;;;15.20;92.00;;;;;;5036815;28;20074;-82
2023/06/08 00:05:02;;;;;;;14.07;7.78;;;15.20;91.90;;;;;;5014213;28;20041;-82
2023/06/08 00:07:29;;;;;;;16.38;8.10;;;15.10;91.80;;;;;;5014423;28;20030;-81
2023/06/08 00:09:57;;;;;;;16.77;8.23;;;15.20;92.00;;;;;;5014517;28;20387;-81
2023/06/08 00:12:24;;;;;;;15.10;8.50;;;15.10;92.10;;;;;;4996064;28;20022;-83
2023/06/08 00:14:50;;;;;;;16.02;7.53;;;15.10;92.50;;;;;;5014799;28;20438;-83
2023/06/08 00:17:16;;;;;;;16.88;7.97;;;15.00;92.50;;;;;;5014981;28;20029;-83
2023/06/08 00:19:45;;;;;;;15.38;8.35;;;15.00;92.60;;;;;;5016592;28;20026;-82
2023/06/08 00:22:12;;;;;;;12.35;7.72;;;15.00;92.70;;;;;;5002430;28;20022;-82
2023/06/08 00:24:39;;;;;;;13.32;8.10;;;15.00;92.80;;;;;;5001138;28;20026;-82
2023/06/08 00:27:06;;;;;;;14.75;8.85;;;14.90;92.70;;;;;;4996069;28;20395;-82
2023/06/08 00:29:32;;;;;;;;;;;14.90;92.80;;;;;;5015950;28;20021;-81
2023/06/08 00:31:58;;;;;;;11.48;7.50;;;14.80;92.50;;;;;;5030530;28;19893;-82
2023/06/08 00:34:27;;;;;;;15.23;7.97;;;14.80;92.90;;;;;;5026849;28;20113;-82
2023/06/08 00:36:53;;;;;;;13.57;7.85;;;14.70;93.10;;;;;;5014256;28;20068;-82
2023/06/08 00:39:19;;;;;;;14.85;8.27;;;14.70;93.10;;;;;;5011935;28;20422;-83
2023/06/08 00:41:45;;;;;;;16.88;9.18;;;14.70;93.00;;;;;;5015333;28;20028;-82
2023/06/08 00:44:11;;;;;;;15.18;8.25;;;14.70;92.90;;;;;;5018529;28;20022;-81
2023/06/08 00:46:37;;;;;;;11.13;7.78;;;14.70;92.80;;;;;;5035063;28;20020;-82
2023/06/08 00:49:05;;;;;;;16.85;8.15;;;14.70;92.90;;;;;;5012129;28;20014;-82
2023/06/08 00:51:41;;;;;;;14.20;7.35;;;14.70;93.10;;;;;;5015800;28;20522;-82
2023/06/08 00:54:10;;;;;;;11.88;7.78;;;14.70;93.30;;;;;;5007509;28;20103;-82
2023/06/08 00:56:38;;;;;;;15.30;8.27;;;14.70;93.30;;;;;;5013780;28;20079;-82
2023/06/08 00:59:05;;;;;;;13.18;7.93;;;14.70;93.30;;;;;;5013499;28;20025;-82
2023/06/08 01:01:32;;;;;;;13.48;7.57;;;14.60;93.30;;;;;;5013515;28;20025;-83
2023/06/08 01:04:07;;;;;;;14.25;9.00;;;14.60;93.40;;;;;;5013309;28;20018;-82
2023/06/08 01:06:53;;;;;;;16.35;9.07;;;14.60;93.50;;;;;;5013151;28;20099;-83
2023/06/08 01:09:42;;;;;;;17.65;8.52;;;14.60;93.60;;;;;;5011919;28;20054;-82
2023/06/08 01:12:10;;;;;;;19.88;9.77;;;14.60;93.60;;;;;;5011826;28;20030;-82
2023/06/08 01:15:00;;;;;;;14.15;9.10;;;14.60;93.70;;;;;;5013231;28;20431;-82
2023/06/08 01:17:48;;;;;;;12.38;7.70;;;14.60;93.70;;;;;;5010010;28;20024;-83
2023/06/08 01:20:41;;;;;;;13.68;8.15;;;14.60;93.70;;;;;;5011170;28;20439;-82
2023/06/08 01:23:34;;;;;;;14.23;8.32;;;14.60;93.70;;;;;;4991549;28;20022;-83
2023/06/08 01:26:01;;;;;;;17.98;8.68;;;14.60;93.50;;;;;;5015683;28;20055;-82
2023/06/08 01:28:28;;;;;;;14.13;8.57;;;14.70;93.40;;;;;;5012319;28;20602;-82
2023/06/08 01:30:54;;;;;;;;;;;14.70;93.30;;;;;;5012201;28;20454;-81
2023/06/08 01:33:23;;;;;;;19.38;8.93;;;14.70;93.00;;;;;;5013055;28;19905;-82
2023/06/08 01:36:17;;;;;;;10.30;7.60;;;14.70;93.30;;;;;;5012660;28;20034;-83
2023/06/08 01:39:00;;;;;;;17.60;8.60;;;14.70;93.50;;;;;;5012226;28;20038;-83
2023/06/08 01:41:34;;;;;;;17.25;8.38;;;14.70;93.70;;;;;;5016375;28;20378;-83
2023/06/08 01:44:01;;;;;;;18.25;8.75;;;14.80;93.70;;;;;;5006965;28;20025;-83
2023/06/08 01:46:30;;;;;;;19.55;9.48;;;14.80;93.70;;;;;;5014267;28;20038;-82
2023/06/08 01:48:58;;;;;;;22.05;9.15;;;14.80;93.80;;;;;;4995822;28;20533;-83
2023/06/08 01:51:26;;;;;;;21.52;9.35;;;14.90;93.80;;;;;;5012615;28;20125;-83
2023/06/08 01:54:06;;;;;;;;;;;14.90;93.50;;;;;;5013649;28;20100;-83
2023/06/08 01:56:33;;;;;;;18.50;8.88;;;15.00;93.30;;;;;;5013581;28;20013;-82
2023/06/08 01:58:59;;;;;;;16.33;9.70;;;15.00;93.20;;;;;;5013117;28;20072;-83
2023/06/08 02:01:25;;;;;;;16.67;9.27;;;15.00;93.20;;;;;;5015313;28;20399;-81
2023/06/08 02:03:51;;;;;;;18.48;8.95;;;15.10;93.10;;;;;;5011662;28;20414;-82
2023/06/08 02:06:17;;;;;;;15.57;9.05;;;15.10;93.10;;;;;;5008310;28;20026;-81
2023/06/08 02:08:43;;;;;;;22.45;9.52;;;15.10;92.80;;;;;;5011305;28;20022;-81
2023/06/08 02:11:10;;;;;;;15.63;9.80;;;15.20;92.80;;;;;;5004569;28;20033;-82
2023/06/08 02:13:43;;;;;;;16.50;9.57;;;15.30;92.80;;;;;;5015315;28;20018;-82
2023/06/08 02:16:10;;;;;;;17.80;9.93;;;15.30;92.70;;;;;;5019131;28;20432;-81
2023/06/08 02:18:39;;;;;;;20.05;9.38;;;15.30;92.50;;;;;;5017966;28;20018;-82
2023/06/08 02:21:05;;;;;;;16.42;8.77;;;15.40;92.50;;;;;;5022165;28;20088;-83
2023/06/08 02:23:31;;;;;;;14.82;9.90;;;15.40;92.40;;;;;;5004724;28;20026;-82
2023/06/08 02:25:56;;;;;;;17.50;10.82;;;15.40;92.30;;;;;;5000835;28;20049;-82
2023/06/08 02:28:22;;;;;;;12.50;8.82;;;15.50;92.30;;;;;;5012618;28;20022;-83
2023/06/08 02:30:48;;;;;;;11.98;9.35;;;15.50;92.30;;;;;;5012577;28;20057;-81
2023/06/08 02:33:14;;;;;;;17.83;9.48;;;15.60;92.30;;;;;;5014204;28;20371;-82
2023/06/08 02:35:40;;;;;;;19.52;10.02;;;15.70;92.20;;;;;;5010867;28;20030;-81
2023/06/08 02:38:06;;;;;;;20.55;9.10;;;15.70;92.10;;;;;;5035022;28;20025;-81
2023/06/08 02:40:32;;;;;;;16.80;9.27;;;15.80;91.90;;;;;;5028934;28;20045;-81
2023/06/08 02:42:58;;;;;;;16.42;9.15;;;15.90;91.80;;;;;;5019132;28;20022;-81
2023/06/08 02:45:25;;;;;;;13.18;8.77;;;15.90;91.10;;;;;;5017936;28;20018;-81
2023/06/08 02:47:51;;;;;;;17.92;8.50;;;16.00;90.90;;;;;;5016625;28;20507;-81
2023/06/08 02:50:17;;;;;;;14.00;8.38;;;16.10;90.60;;;;;;5015729;28;20084;-82
2023/06/08 02:52:42;;;;;;;11.82;9.07;;;16.20;90.30;;;;;;5012336;28;20022;-83
2023/06/08 02:55:08;;;;;;;10.00;8.15;;;16.20;90.20;;;;;;5015729;28;20029;-81
2023/06/08 02:57:36;;;;;;;11.38;8.38;;;16.30;90.10;;;;;;5016078;28;20022;-81
2023/06/08 03:00:07;;;;;;;;;;;16.40;89.70;;;;;;5011815;28;20029;-81
2023/06/08 03:02:33;;;;;;;15.77;8.20;;;16.50;89.80;;;;;;5008062;28;19951;-82
2023/06/08 03:05:02;;;;;;;13.88;8.18;;;16.70;89.60;;;;;;5014099;28;20069;-83
2023/06/08 03:07:28;;;;;;;15.50;8.50;;;16.90;89.00;;;;;;4998821;28;20022;-82
2023/06/08 03:09:54;;;;;;;16.73;8.48;;;17.00;88.40;;;;;;5016272;28;20088;-82
2023/06/08 03:12:20;;;;;;;18.27;9.18;;;17.20;87.70;;;;;;5017269;28;20096;-82
2023/06/08 03:14:48;;;;;;;15.35;9.40;;;17.30;87.10;;;;;;5018207;28;20499;-82
2023/06/08 03:17:17;;;;;;;14.65;8.52;;;17.40;86.50;;;;;;5036303;28;20037;-80
2023/06/08 03:19:43;;;;;;;14.60;9.80;;;17.40;85.80;;;;;;5032438;28;20052;-81
2023/06/08 03:22:09;;;;;;;11.45;8.40;;;17.50;85.10;;;;;;5015864;28;20439;-83
2023/06/08 03:24:36;;;;;;;15.35;11.38;;;17.50;84.90;;;;;;4999460;28;20033;-83
2023/06/08 03:27:03;;;;;;;17.13;9.13;;;17.40;84.80;;;;;;5016301;28;20075;-82
2023/06/08 03:29:30;;;;;;;11.38;9.10;;;17.40;85.10;;;;;;5016427;28;20396;-81
2023/06/08 03:31:57;;;;;;;15.57;10.03;;;17.40;85.40;;;;;;5015661;28;20018;-84
2023/06/08 03:34:25;;;;;;;11.97;9.97;;;17.50;85.10;;;;;;5015852;28;20270;-83
2023/06/08 03:36:52;;;;;;;13.32;9.55;;;17.50;84.50;;;;;;5001327;28;20041;-83
2023/06/08 03:39:17;;;;;;;17.20;10.18;;;17.50;84.50;;;;;;5016506;28;20364;-84
2023/06/08 03:41:44;;;;;;;15.18;10.18;;;17.50;84.60;;;;;;5021420;28;20018;-84
2023/06/08 03:44:10;;;;;;;15.10;10.23;;;17.60;84.90;;;;;;5019902;28;20025;-83
2023/06/08 03:46:36;;;;;;;13.60;8.93;;;17.70;84.90;;;;;;4996417;28;20461;-83
2023/06/08 03:49:01;;;;;;;11.45;9.05;;;17.80;84.90;;;;;;5015254;28;20100;-82
2023/06/08 03:51:27;;;;;;;16.95;10.27;;;17.80;84.60;;;;;;5015459;28;20034;-81
2023/06/08 03:53:53;;;;;;;11.20;9.07;;;17.90;84.70;;;;;;5014805;28;20038;-82
2023/06/08 03:56:19;;;;;;;12.48;8.75;;;18.00;84.50;;;;;;5015313;28;20030;-83
2023/06/08 03:58:45;;;;;;;15.52;9.32;;;18.10;84.90;;;;;;4998114;28;20022;-83
2023/06/08 04:01:12;;;;;;;14.02;10.20;;;18.10;84.40;;;;;;5014936;28;20021;-85
2023/06/08 04:03:38;;;;;;;12.45;10.20;;;18.10;84.10;;;;;;5016575;28;20024;-83
2023/06/08 04:06:11;;;;;;;11.32;8.70;;;18.10;84.30;;;;;;5018883;28;20022;-84
2023/06/08 04:08:40;;;;;;;17.35;12.32;;;18.20;84.00;;;;;;5017547;28;20053;-84
2023/06/08 04:11:09;;;;;;;12.07;9.50;;;18.20;84.10;;;;;;5015353;28;20487;-83
2023/06/08 04:13:39;;;;;;;13.10;8.98;;;18.20;83.80;;;;;;5015359;28;20451;-84
2023/06/08 04:16:09;;;;;;;13.50;10.40;;;18.20;83.70;;;;;;5014882;28;20048;-84
2023/06/08 04:18:39;;;;;;;14.32;10.77;;;18.20;83.80;;;;;;5014520;28;20109;-84
2023/06/08 04:21:06;;;;;;;14.15;9.75;;;18.30;83.90;;;;;;5016018;28;20127;-84
2023/06/08 04:23:36;;;;;;;10.37;8.07;;;18.30;83.60;;;;;;5015160;28;20094;-85
2023/06/08 04:26:03;;;;;;;14.02;8.88;;;18.40;82.90;;;;;;5014969;28;20537;-83
2023/06/08 04:28:29;;;;;;;18.27;9.45;;;18.40;83.10;;;;;;5015472;28;20056;-82
2023/06/08 04:30:58;;;;;;;12.57;9.48;;;18.40;82.80;;;;;;5017366;28;20117;-82
2023/06/08 04:33:24;;;;;;;13.50;9.00;;;18.30;83.00;;;;;;5004091;28;20024;-82
2023/06/08 04:35:50;;;;;;;14.68;8.57;;;18.40;82.70;;;;;;5033317;28;20053;-82
2023/06/08 04:38:16;;;;;;;12.02;8.32;;;18.40;82.50;;;;;;5016638;28;20037;-81
2023/06/08 04:40:53;;;;;;;14.73;9.80;;;18.60;82.40;;;;;;5017810;28;20160;-83
2023/06/08 04:43:20;;;;;;;12.05;7.82;;;18.60;81.90;;;;;;5024200;28;20022;-82
2023/06/08 04:45:59;;;;;;;16.15;10.27;;;18.70;81.80;;;;;;5021766;28;20034;-83
2023/06/08 04:48:28;;;;;;;13.35;8.32;;;18.80;82.00;;;;;;5018123;28;20069;-83
2023/06/08 04:51:03;;;;;;;10.82;7.38;;;18.80;82.30;;;;;;4998615;28;20436;-82
2023/06/08 04:53:33;;;;;;;11.15;8.50;;;18.90;80.60;;;;;;5014393;28;20547;-83
2023/06/08 04:56:01;;;;;;;13.75;8.02;;;19.10;80.20;;;;;;4996179;28;20038;-83
2023/06/08 04:58:27;;;;;;;10.60;7.82;;;19.10;79.90;;;;;;5013124;28;20033;-83
2023/06/08 05:00:54;;;;;;;14.80;10.48;;;19.20;79.90;;;;;;5000867;28;20511;-82
2023/06/08 05:03:20;;;;;;;14.00;8.27;;;19.30;80.70;;;;;;5015780;28;20078;-83
2023/06/08 05:05:48;;;;;;;12.32;7.93;;;19.40;80.30;;;;;;4997402;28;20563;-85
2023/06/08 05:08:15;;;;;;;11.35;8.13;;;19.60;79.60;;;;;;5014766;28;20026;-83
2023/06/08 05:10:41;;;;;;;17.05;9.32;;;20.00;78.40;;;;;;5013796;28;20125;-82
2023/06/08 05:13:07;;;;;;;15.63;9.50;;;20.70;76.30;;;;;;5015354;28;20091;-83
2023/06/08 05:15:32;;;;;;;13.02;8.07;;;21.60;73.00;;;;;;5017962;28;20030;-82
2023/06/08 05:17:58;;;;;;;14.05;8.13;;;22.70;69.70;;;;;;5020316;28;20045;-83
2023/06/08 05:20:25;;;;;;;13.82;9.00;;;23.70;65.80;;;;;;5031346;28;20097;-83
2023/06/08 05:22:52;;;;;;;15.52;9.77;;;24.30;62.70;;;;;;5001802;28;20026;-84
2023/06/08 05:25:18;;;;;;;8.90;7.22;;;24.60;61.50;;;;;;5014480;28;20104;-83
2023/06/08 05:27:45;;;;;;;9.13;6.60;;;24.80;59.50;;;;;;4996439;28;20021;-82
2023/06/08 05:30:11;;;;;;;6.43;5.80;;;25.20;58.30;;;;;;5014456;28;20648;-84
2023/06/08 05:32:37;;;;;;;8.57;5.53;;;26.10;55.40;;;;;;5014662;28;20065;-83
2023/06/08 05:35:03;;;;;;;7.13;5.30;;;27.20;52.50;;;;;;5013914;28;20475;-84
2023/06/08 05:37:29;;;;;;;10.38;5.85;;;27.80;50.50;;;;;;5012798;28;20472;-84
2023/06/08 05:39:56;;;;;;;28.35;7.45;;;;;;;;;;5013039;28;20026;-83
2023/06/08 05:42:22;;;;;;;8.38;5.57;;;28.70;48.90;;;;;;5013257;28;20028;-84
2023/06/08 05:44:49;;;;;;;10.75;6.10;;;29.70;45.30;;;;;;4996008;28;20116;-84
2023/06/08 05:47:15;;;;;;;6.95;5.25;;;30.10;45.00;;;;;;5013984;28;20033;-85
2023/06/08 05:49:41;;;;;;;8.38;6.55;;;30.50;44.20;;;;;;5014397;28;20033;-85
2023/06/08 05:52:07;;;;;;;6.60;4.93;;;30.50;43.50;;;;;;5013513;28;20030;-84
2023/06/08 05:54:33;;;;;;;5.10;2.93;;;30.30;42.90;;;;;;5014163;28;20060;-84
2023/06/08 05:57:00;;;;;;;4.90;3.85;;;30.40;38.20;;;;;;5014169;28;20022;-83
2023/06/08 05:59:26;;;;;;;4.65;3.85;;;30.20;39.70;;;;;;5012721;28;20105;-84
2023/06/08 06:01:53;;;;;;;6.40;3.67;;;30.70;40.10;;;;;;5012656;28;20119;-83
2023/06/08 06:04:19;;;;;;;6.20;3.63;;;31.30;38.80;;;;;;4994656;28;20061;-84
2023/06/08 06:06:45;;;;;;;3.60;3.10;;;31.70;37.70;;;;;;5013714;28;20101;-78
2023/06/08 06:09:11;;;;;;;5.93;3.57;;;31.90;37.20;;;;;;5011893;28;20026;-84
2023/06/08 06:11:38;;;;;;;4.43;3.58;;;33.10;36.40;;;;;;5013379;28;20072;-84
2023/06/08 06:14:04;;;;;;;9.13;4.20;;;34.10;35.00;;;;;;5013089;28;20057;-85
2023/06/08 06:16:29;;;;;;;5.20;4.10;;;35.00;34.10;;;;;;4986695;28;20511;-82
2023/06/08 06:18:56;;;;;;;9.50;4.37;;;34.90;34.60;;;;;;5014369;28;20070;-84
2023/06/08 06:21:22;;;;;;;7.30;4.28;;;35.00;34.60;;;;;;5013285;28;20043;-83
2023/06/08 06:23:48;;;;;;;5.00;3.60;;;35.30;33.90;;;;;;5014881;28;20086;-84
2023/06/08 06:26:14;;;;;;;8.30;4.07;;;35.50;32.60;;;;;;5014527;28;20025;-82
2023/06/08 06:28:40;;;;;;;9.30;3.67;;;35.40;32.40;;;;;;5017418;28;20016;-83
2023/06/08 06:31:06;;;;;;;5.22;3.35;;;35.00;32.60;;;;;;5027729;28;20065;-84
2023/06/08 06:33:32;;;;;;;6.05;3.80;;;34.90;32.50;;;;;;5016253;28;20125;-83
2023/06/08 06:35:58;;;;;;;5.30;3.40;;;35.60;32.30;;;;;;5000653;28;20050;-85
2023/06/08 06:38:24;;;;;;;5.40;3.07;;;36.50;31.80;;;;;;5020457;28;20026;-85
2023/06/08 06:40:52;;;;;;;8.02;3.40;;;37.40;30.80;;;;;;5027431;28;20271;-84
2023/06/08 06:43:21;;;;;;;8.25;3.90;;;36.90;30.80;;;;;;5023051;28;20034;-83
2023/06/08 06:45:50;;;;;;;7.72;3.97;;;36.50;31.50;;;;;;5021809;28;20030;-83
2023/06/08 06:48:22;;;;;;;6.68;3.72;;;36.60;31.30;;;;;;5020322;28;20049;-84
2023/06/08 06:50:48;;;;;;;4.88;3.67;;;36.90;30.90;;;;;;5004678;28;20119;-83
2023/06/08 06:53:14;;;;;;;4.38;3.25;;;37.10;30.50;;;;;;5023720;28;20060;-81
2023/06/08 06:55:41;;;;;;;10.85;4.13;;;37.30;30.30;;;;;;5020561;28;20026;-82
2023/06/08 06:58:08;;;;;;;6.55;3.78;;;37.10;31.00;;;;;;4997519;28;20407;-83
2023/06/08 07:00:44;;;;;;;4.43;3.55;;;37.50;30.90;;;;;;5014059;28;20029;-83
2023/06/08 07:03:11;;;;;;;6.13;3.63;;;38.40;30.10;;;;;;5015072;28;20026;-85
2023/06/08 07:05:37;;;;;;;8.68;4.22;;;;;;;;;;5013013;28;20030;-82
2023/06/08 07:08:04;;;;;;;7.13;3.75;;;;;;;;;;5012576;28;20348;-84
2023/06/08 07:10:30;;;;;;;10.13;4.45;;;;;;;;;;4994150;28;20041;-86
2023/06/08 07:12:56;;;;;;;6.13;4.32;;;39.30;29.80;;;;;;4996546;28;20061;-86
2023/06/08 07:15:23;;;;;;;7.00;3.85;;;40.50;28.80;;;;;;5013950;28;20037;-87
2023/06/08 07:17:50;;;;;;;4.95;3.85;;;40.30;28.50;;;;;;5013064;28;20026;-86
2023/06/08 07:20:15;;;;;;;9.27;3.90;;;39.80;29.00;;;;;;5012848;28;20372;-85
2023/06/08 07:22:41;;;;;;;9.73;3.47;;;40.30;28.60;;;;;;5016354;28;20022;-85
2023/06/08 07:25:07;;;;;;;6.47;3.55;;;40.30;28.70;;;;;;5016952;28;20030;-85
2023/06/08 07:27:34;;;;;;;5.75;4.05;;;;;;;;;;5025599;28;20048;-84
2023/06/08 07:29:59;;;;;;;;;;;40.80;28.70;;;;;;4998893;28;20034;-86
2023/06/08 07:32:26;;;;;;;8.10;4.20;;;41.70;29.00;;;;;;5016031;28;19940;-86
2023/06/08 07:34:53;;;;;;;7.07;5.18;;;40.90;28.20;;;;;;5000962;28;20038;-84
2023/06/08 07:37:19;;;;;;;6.47;5.45;;;41.10;28.20;;;;;;5015598;28;20017;-86
2023/06/08 07:39:45;;;;;;;8.65;4.32;;;;;;;;;;5015204;28;20508;-84
2023/06/08 07:42:11;;;;;;;;;;;;;;;;;;5016233;28;20053;-86
2023/06/08 07:44:37;;;;;;;5.93;3.70;;;;;;;;;;5016281;28;20282;-86
2023/06/08 07:47:03;;;;;;;;;;;41.70;28.00;;;;;;5018667;28;20033;-86
2023/06/08 07:49:29;;;;;;;8.93;3.90;;;42.10;28.00;;;;;;5016113;28;20000;-85
2023/06/08 07:51:55;;;;;;;5.70;3.95;;;41.30;27.90;;;;;;5015986;28;20415;-86
2023/06/08 07:54:21;;;;;;;7.10;4.30;;;40.90;28.20;;;;;;5016256;28;20108;-86
2023/06/08 07:56:48;;;;;;;7.03;4.30;;;41.00;28.50;;;;;;5015587;28;20041;-84
2023/06/08 07:59:14;;;;;;;7.07;5.03;;;41.20;28.30;;;;;;5014912;28;20025;-83
2023/06/08 08:01:40;;;;;;;;;;;41.20;28.10;;;;;;5018422;28;20022;-82
2023/06/08 08:04:07;;;;;;;9.80;4.55;;;;;;;;;;5000662;28;19917;-86
2023/06/08 08:06:33;;;;;;;;;;;40.20;28.70;;;;;;5026197;28;20042;-85
2023/06/08 08:08:59;;;;;;;7.88;3.60;;;35.60;30.10;;;;;;4999467;28;19917;-83
2023/06/08 08:11:25;;;;;;;4.25;3.28;;;35.20;30.60;;;;;;5014739;28;20041;-86
2023/06/08 08:13:50;;;;;;;7.00;3.47;;;36.60;30.30;;;;;;5015094;28;20483;-78
2023/06/08 08:16:16;;;;;;;4.30;3.20;;;37.90;29.10;;;;;;5016483;28;20033;-86
2023/06/08 08:18:42;;;;;;;6.93;2.92;;;39.00;29.00;;;;;;5019669;28;20399;-87
2023/06/08 08:21:08;;;;;;;9.13;3.15;;;40.00;28.60;;;;;;5034051;28;20038;-86
2023/06/08 08:23:34;;;;;;;4.75;3.38;;;40.70;27.80;;;;;;5028949;28;20030;-89
2023/06/08 08:25:59;;;;;;;7.70;3.53;;;41.00;28.00;;;;;;5020301;28;20025;-87
2023/06/08 08:28:26;;;;;;;4.10;3.03;;;;;;;;;;5016907;28;20052;-87
2023/06/08 08:30:52;;;;;;;;;;;41.80;27.90;;;;;;5018244;28;20101;-88
2023/06/08 08:33:18;;;;;;;6.03;3.30;;;42.80;27.30;;;;;;4998023;28;19968;-86
2023/06/08 08:35:44;;;;;;;;;;;41.70;26.70;;;;;;5015367;28;20356;-87
2023/06/08 08:38:09;;;;;;;3.67;2.88;;;42.20;27.90;;;;;;5016489;28;19921;-90
2023/06/08 08:40:35;;;;;;;;;;;42.80;26.70;;;;;;4990406;28;20040;-85
2023/06/08 08:43:06;;;;;;;3.58;2.92;;;;;;;;;;4996288;28;19909;-89
2023/06/08 08:45:34;;;;;;;3.85;3.17;;;43.10;27.10;;;;;;5005067;28;20026;-87
2023/06/08 08:48:01;;;;;;;3.42;2.75;;;43.60;26.20;;;;;;5019184;28;20049;-89
2023/06/08 08:50:28;;;;;;;4.70;2.85;;;44.10;26.10;;;;;;5006777;28;20101;-91
2023/06/08 08:52:57;;;;;;;8.32;3.22;;;43.50;25.60;;;;;;5013919;28;20189;-88
2023/06/08 08:55:27;;;;;;;5.72;3.55;;;43.40;26.00;;;;;;5031482;28;20022;-88
2023/06/08 08:58:01;;;;;;;4.78;2.55;;;43.00;26.10;;;;;;5023825;28;20026;-90
2023/06/08 09:00:27;;;;;;;5.72;3.08;;;43.00;26.20;;;;;;5018809;28;20026;-84
2023/06/08 09:02:53;;;;;;;5.97;3.30;;;42.80;26.40;;;;;;5015291;28;20025;-85
2023/06/08 09:05:19;;;;;;;6.15;2.78;;;43.10;26.40;;;;;;5016136;28;20022;-87
2023/06/08 09:07:45;;;;;;;7.20;3.05;;;43.50;26.30;;;;;;5021956;28;20391;-87
2023/06/08 09:10:18;;;;;;;;;;;43.50;26.20;;;;;;5016059;28;20447;-85
2023/06/08 09:12:47;;;;;;;4.30;3.20;;;43.80;26.80;;;;;;5013782;28;19956;-83
2023/06/08 09:15:14;;;;;;;8.32;3.47;;;;;;;;;;5014908;28;20037;-85
2023/06/08 09:17:40;;;;;;;6.25;3.22;;;;;;;;;;5015044;28;20093;-87
2023/06/08 09:20:08;;;;;;;3.95;2.83;;;;;;;;;;5014897;28;20014;-86
2023/06/08 09:22:38;;;;;;;5.13;3.33;;;;;;;;;;5018117;28;20076;-86
2023/06/08 09:25:09;;;;;;;3.10;2.80;;;;;;;;;;5004506;28;20049;-90
2023/06/08 09:27:37;;;;;;;9.32;3.60;;;;;;;;;;5004570;28;20029;-91
2023/06/08 09:30:22;;;;;;;6.05;3.05;;;;;;;;;;5030011;28;20038;-90
2023/06/08 09:32:48;;;;;;;;;;;;;;;;;;5017340;28;20036;-89
2023/06/08 09:35:22;;;;;;;5.75;3.47;;;;;;;;;;5025921;28;19921;-88
2023/06/08 09:37:52;;;;;;;4.78;3.17;;;44.00;26.20;;;;;;5002604;28;20031;-89
2023/06/08 09:40:21;;;;;;;5.60;2.78;;;40.90;26.40;;;;;;5010355;28;20021;-90
2023/06/08 09:42:53;;;;;;;3.70;2.97;;;39.80;26.90;;;;;;5035796;28;20049;-85
2023/06/08 09:45:20;;;;;;;7.60;3.00;;;40.00;27.00;;;;;;5032869;28;20012;-86
2023/06/08 09:47:47;;;;;;;4.15;3.10;;;39.30;27.00;;;;;;5017311;28;20037;-84
2023/06/08 09:50:15;;;;;;;;;;;38.90;27.80;;;;;;5024974;28;20064;-92
2023/06/08 09:52:45;;;;;;;7.88;4.38;;;39.40;28.00;;;;;;5016252;28;19913;-91
2023/06/08 09:55:14;;;;;;;4.47;3.53;;;39.40;27.40;;;;;;5013265;28;20089;-86
2023/06/08 09:57:41;;;;;;;4.07;3.33;;;38.60;27.80;;;;;;5014471;28;20018;-86
2023/06/08 10:00:17;;;;;;;8.30;4.00;;;37.50;28.10;;;;;;5014480;28;20102;-89
2023/06/08 10:02:53;;;;;;;11.10;3.50;;;37.10;28.50;;;;;;5005824;28;20121;-85
2023/06/08 10:05:22;;;;;;;6.53;3.38;;;37.40;28.80;;;;;;5013033;28;20042;-86
2023/06/08 10:07:51;;;;;;;7.32;3.28;;;38.60;28.50;;;;;;5014317;28;20050;-88
2023/06/08 10:10:36;;;;;;;5.50;3.22;;;39.10;27.90;;;;;;5009843;28;20060;-87
2023/06/08 10:13:02;;;;;;;6.55;3.40;;;39.50;28.20;;;;;;5014230;28;20030;-85
2023/06/08 10:15:28;;;;;;;7.07;5.28;;;40.10;27.70;;;;;;5030292;28;20014;-85
2023/06/08 10:17:55;;;;;;;3.95;3.40;;;40.50;27.80;;;;;;5034001;28;20040;-88
2023/06/08 10:20:21;;;;;;;9.13;3.60;;;40.60;27.60;;;;;;5001552;28;20033;-86
2023/06/08 10:22:48;;;;;;;7.85;3.40;;;41.00;27.30;;;;;;5015214;28;20022;-87
2023/06/08 10:25:16;;;;;;;5.95;3.45;;;41.00;26.90;;;;;;5020300;28;20360;-87
2023/06/08 10:27:52;;;;;;;5.07;3.25;;;41.00;26.70;;;;;;5019614;28;20104;-85
2023/06/08 10:30:30;;;;;;;6.70;3.92;;;39.00;27.00;;;;;;5002656;28;20339;-87
2023/06/08 10:33:10;;;;;;;6.43;3.78;;;36.30;28.20;;;;;;5027658;28;20022;-92
2023/06/08 10:35:37;;;;;;;5.80;4.65;;;34.20;29.80;;;;;;5010258;28;20034;-83
2023/06/08 10:38:16;;;;;;;6.95;4.43;;;32.80;31.30;;;;;;4998458;28;20440;-81
2023/06/08 10:40:46;;;;;;;7.38;4.05;;;31.30;31.60;;;;;;5001503;28;20041;-83
2023/06/08 10:43:13;;;;;;;7.93;4.55;;;29.80;33.00;;;;;;5002672;28;20030;-82
2023/06/08 10:45:44;;;;;;;9.63;3.97;;;28.90;34.60;;;;;;5018882;28;20399;-83
2023/06/08 10:48:14;;;;;;;7.78;4.60;;;28.30;36.00;;;;;;4997044;28;20112;-83
2023/06/08 10:50:42;;;;;;;7.03;3.70;;;27.90;36.10;;;;;;5016352;28;20030;-83
2023/06/08 10:53:09;;;;;;;7.60;4.10;;;27.50;36.30;;;;;;5015595;28;20207;-83
2023/06/08 10:55:35;;;;;;;6.90;4.20;;;27.30;36.60;;;;;;5021621;28;20026;-83
2023/06/08 10:58:16;;;;;;;4.53;3.80;;;27.00;37.60;;;;;;5009872;28;20025;-82
2023/06/08 11:00:43;;;;;;;7.72;4.70;;;26.80;38.30;;;;;;5035080;28;20031;-83
2023/06/08 11:03:11;;;;;;;8.57;4.93;;;26.50;37.70;;;;;;5024474;28;20018;-84
2023/06/08 11:05:40;;;;;;;6.85;4.13;;;26.30;37.80;;;;;;5017940;28;20022;-82
2023/06/08 11:08:07;;;;;;;8.85;4.38;;;26.30;38.30;;;;;;5016818;28;20030;-83
2023/06/08 11:10:36;;;;;;;7.70;4.53;;;26.30;38.30;;;;;;5016301;28;20452;-83
2023/06/08 11:13:07;;;;;;;6.90;4.65;;;26.20;38.50;;;;;;5016714;28;20018;-81
2023/06/08 11:15:37;;;;;;;8.60;4.57;;;26.00;38.70;;;;;;5016681;28;20057;-82
2023/06/08 11:18:04;;;;;;;6.38;4.57;;;25.70;39.20;;;;;;5020466;28;20022;-81
2023/06/08 11:20:31;;;;;;;5.65;4.70;;;25.50;39.40;;;;;;5022104;28;20388;-83
2023/06/08 11:22:57;;;;;;;7.63;3.85;;;25.40;39.90;;;;;;5021662;28;20033;-82
2023/06/08 11:25:27;;;;;;;11.55;3.97;;;25.40;40.00;;;;;;5017038;28;20383;-83
2023/06/08 11:27:53;;;;;;;7.50;4.60;;;25.40;39.60;;;;;;5015923;28;20391;-82
2023/06/08 11:30:20;;;;;;;8.57;5.30;;;25.20;40.20;;;;;;5015848;28;20045;-81
2023/06/08 11:32:47;;;;;;;;;;;25.00;41.00;;;;;;5016167;28;20051;-81
2023/06/08 11:35:13;;;;;;;9.70;5.05;;;25.00;40.00;;;;;;5015986;28;19924;-84
2023/06/08 11:37:41;;;;;;;9.25;5.22;;;25.00;41.10;;;;;;5015991;28;20029;-83
2023/06/08 11:40:14;;;;;;;8.27;4.75;;;25.00;40.90;;;;;;5016025;28;20021;-85
2023/06/08 11:42:40;;;;;;;9.20;4.45;;;25.00;40.90;;;;;;5014679;28;20026;-82
2023/06/08 11:45:09;;;;;;;5.50;4.25;;;24.80;41.20;;;;;;5013894;28;20088;-82
2023/06/08 11:47:35;;;;;;;5.05;4.50;;;24.70;40.90;;;;;;5016309;28;20022;-85
2023/06/08 11:50:03;;;;;;;6.37;3.90;;;24.70;41.50;;;;;;5008014;28;20073;-85
2023/06/08 11:52:34;;;;;;;5.82;4.15;;;24.80;41.00;;;;;;4998088;28;20045;-86
2023/06/08 11:55:05;;;;;;;5.20;4.07;;;24.90;41.10;;;;;;4998916;28;20038;-83
2023/06/08 11:57:42;;;;;;;7.32;4.72;;;25.00;40.70;;;;;;5018273;28;20030;-85
2023/06/08 12:00:22;;;;;;;7.53;4.07;;;25.00;41.30;;;;;;4998664;28;20026;-83
2023/06/08 12:02:49;;;;;;;6.10;4.57;;;25.10;41.10;;;;;;5015843;28;20036;-84
2023/06/08 12:05:16;;;;;;;;;;;25.20;41.00;;;;;;5016469;28;20022;-84
2023/06/08 12:08:02;;;;;;;11.25;5.30;;;25.30;40.60;;;;;;5022985;28;20359;-83
2023/06/08 12:10:36;;;;;;;5.78;5.10;;;25.40;41.10;;;;;;5029087;28;20038;-83
2023/06/08 12:13:16;;;;;;;6.95;4.45;;;25.50;41.20;;;;;;5023537;28;20107;-83
2023/06/08 12:15:47;;;;;;;5.85;4.30;;;25.50;40.80;;;;;;5014979;28;20030;-85
2023/06/08 12:18:16;;;;;;;34.17;9.00;;;25.30;40.90;;;;;;5015143;28;20018;-85
2023/06/08 12:20:42;;;;;;;6.78;4.60;;;25.20;41.90;;;;;;5015447;28;20026;-82
2023/06/08 12:23:09;;;;;;;6.13;4.28;;;25.20;40.80;;;;;;5016378;28;20109;-84
2023/06/08 12:25:35;;;;;;;5.50;4.60;;;25.20;41.20;;;;;;5016293;28;20026;-84
2023/06/08 12:28:01;;;;;;;7.07;4.07;;;25.20;41.90;;;;;;5016401;28;20037;-84
2023/06/08 12:30:28;;;;;;;6.38;4.65;;;25.30;41.60;;;;;;5017638;28;20514;-83
2023/06/08 12:32:55;;;;;;;8.60;4.65;;;25.30;40.70;;;;;;5014852;28;20036;-84
2023/06/08 12:35:22;;;;;;;6.07;4.70;;;25.20;41.00;;;;;;5014487;28;20360;-82
2023/06/08 12:37:48;;;;;;;5.80;4.50;;;25.00;41.20;;;;;;5015645;28;20479;-84
2023/06/08 12:40:20;;;;;;;7.72;4.60;;;24.90;41.30;;;;;;5015854;28;20049;-87
2023/06/08 12:42:50;;;;;;;8.27;4.47;;;24.90;41.60;;;;;;4997278;28;20096;-84
2023/06/08 12:45:22;;;;;;;10.32;4.70;;;24.90;41.70;;;;;;4997919;28;20105;-84
2023/06/08 12:47:49;;;;;;;12.48;4.57;;;25.00;42.20;;;;;;5015555;28;20025;-84
2023/06/08 12:50:22;;;;;;;5.63;4.25;;;25.00;42.30;;;;;;4996802;28;20042;-83
2023/06/08 12:52:49;;;;;;;5.78;4.53;;;25.10;42.10;;;;;;5015201;28;20030;-85
2023/06/08 12:55:17;;;;;;;13.00;5.47;;;25.20;41.80;;;;;;5016748;28;20057;-82
2023/06/08 12:57:43;;;;;;;6.53;4.65;;;25.20;41.90;;;;;;5026888;28;20033;-82